Mesa.AZweather.com - Mesa, AZ
   Red Mountain Frwy and University Dr., El 1518 ft.
        --- Sunday  Sep. 5, 2021 ---
 
 High Temperature ..  103F at 16:37
 Low Temperature ...  75F at 05:43
 
 High Humidity .....  70% at 04:28
 Low Humidity ......  22% at 18:10
 
 High Barometer ....  29.96 at 23:07
 Low Barometer .....  29.78 at 17:17
 
 High Dew Point ....  67F at 00:05
 Low Dew Point .....  54F at 18:25
 
 Rainfall Total ....  0.00 in.
 
 High Wind Speed ...  ---
                     
 
 Time   Temp  Humi  Rain     Baro  DewPt  Wind
00:00,  82F, 57%, 0.00 in, 29.85, 66F, ---
00:30,  81F, 57%, 0.00 in, 29.84, 64F, ---
01:00,  81F, 56%, 0.00 in, 29.84, 63F, ---
01:30,  80F, 56%, 0.00 in, 29.84, 63F, ---
02:00,  79F, 58%, 0.00 in, 29.84, 63F, ---
02:30,  78F, 63%, 0.00 in, 29.84, 65F, ---
03:00,  78F, 65%, 0.00 in, 29.84, 66F, ---
03:30,  77F, 67%, 0.00 in, 29.85, 65F, ---
04:00,  77F, 69%, 0.00 in, 29.86, 66F, ---
04:30,  76F, 70%, 0.00 in, 29.87, 65F, ---
05:00,  76F, 69%, 0.00 in, 29.88, 64F, ---
05:30,  76F, 68%, 0.00 in, 29.88, 64F, ---
06:00,  75F, 68%, 0.00 in, 29.88, 64F, ---
06:30,  75F, 66%, 0.00 in, 29.89, 63F, ---
07:00,  76F, 66%, 0.00 in, 29.91, 63F, ---
07:30,  77F, 66%, 0.00 in, 29.92, 65F, ---
08:00,  79F, 60%, 0.00 in, 29.91, 64F, ---
08:30,  84F, 52%, 0.00 in, 29.91, 65F, ---
09:00,  87F, 46%, 0.00 in, 29.92, 64F, ---
09:30,  89F, 43%, 0.00 in, 29.92, 64F, ---
10:00,  91F, 40%, 0.00 in, 29.93, 64F, ---
10:30,  93F, 41%, 0.00 in, 29.92, 66F, ---
11:00,  95F, 37%, 0.00 in, 29.91, 65F, ---
11:30,  96F, 33%, 0.00 in, 29.90, 63F, ---
12:00,  97F, 31%, 0.00 in, 29.90, 61F, ---
12:30,  98F, 31%, 0.00 in, 29.88, 63F, ---
13:00,  100F, 29%, 0.00 in, 29.88, 62F, ---
13:30,  100F, 26%, 0.00 in, 29.87, 59F, ---
14:00,  101F, 25%, 0.00 in, 29.85, 58F, ---
14:30,  101F, 26%, 0.00 in, 29.83, 59F, ---
15:00,  102F, 26%, 0.00 in, 29.81, 61F, ---
15:30,  102F, 26%, 0.00 in, 29.80, 61F, ---
16:00,  102F, 25%, 0.00 in, 29.80, 60F, ---
16:30,  102F, 24%, 0.00 in, 29.79, 59F, ---
17:00,  102F, 24%, 0.00 in, 29.79, 59F, ---
17:30,  102F, 24%, 0.00 in, 29.79, 59F, ---
18:00,  101F, 24%, 0.00 in, 29.80, 57F, ---
18:30,  99F, 23%, 0.00 in, 29.81, 54F, ---
19:00,  97F, 24%, 0.00 in, 29.82, 54F, ---
19:30,  94F, 31%, 0.00 in, 29.85, 58F, ---
20:00,  90F, 36%, 0.00 in, 29.87, 59F, ---
20:30,  88F, 37%, 0.00 in, 29.89, 58F, ---
21:00,  87F, 39%, 0.00 in, 29.91, 60F, ---
21:30,  88F, 41%, 0.00 in, 29.93, 61F, ---
22:00,  87F, 42%, 0.00 in, 29.94, 62F, ---
22:30,  86F, 44%, 0.00 in, 29.95, 62F, ---
23:00,  85F, 46%, 0.00 in, 29.94, 61F, ---
23:30,  85F, 47%, 0.00 in, 29.95, 62F, ---
23:59,  84F, 49%, 0.00 in, 29.95, 63F, ---